Time;durP1;ratioP1;P1;durP2;ratioP2;P2;SDS_P1;SDS_P2;PMS_P1;PMS_P2;Temp;Humidity;BMP_temperature;BMP_pressure;BME280_temperature;BME280_humidity;BME280_pressure;Samples;Min_cycle;Max_cycle;Signal;HPM_P1;HPM_P2
2023/01/05 00:08:31;;;;;;;2.63;0.80;;;;;;;9.64;100.00;100789.91;20860143;28;20186;-75
2023/01/05 00:28:57;;;;;;;3.17;1.27;;;;;;;9.66;100.00;100750.69;20857992;28;20053;-75
2023/01/05 00:38:58;;;;;;;3.10;1.20;;;;;;;9.81;100.00;100749.69;20854283;28;20092;-75
2023/01/05 00:49:00;;;;;;;4.63;0.90;;;;;;;9.63;100.00;100748.06;20863068;28;20103;-74
2023/01/05 00:59:01;;;;;;;4.35;1.20;;;;;;;9.70;100.00;100753.25;20860060;28;20041;-74
2023/01/05 01:09:02;;;;;;;2.33;1.05;;;;;;;9.77;100.00;100751.47;20855802;28;20550;-74
2023/01/05 01:19:03;;;;;;;2.35;0.90;;;;;;;9.72;100.00;100734.94;20841800;28;20482;-74
2023/01/05 01:29:05;;;;;;;2.72;0.90;;;;;;;9.68;100.00;100715.81;20856205;28;20052;-74
2023/01/05 01:39:07;;;;;;;1.98;0.82;;;;;;;9.73;100.00;100710.56;20866084;28;20060;-74
2023/01/05 01:49:10;;;;;;;2.83;1.02;;;;;;;9.81;100.00;100707.84;20874430;28;20456;-74
2023/01/05 01:59:11;;;;;;;1.10;0.60;;;;;;;9.80;100.00;100713.97;20870600;28;20056;-74
2023/01/05 02:09:12;;;;;;;1.15;0.50;;;;;;;9.86;100.00;100717.41;20869466;28;20516;-74
2023/01/05 02:19:14;;;;;;;1.17;0.45;;;;;;;9.86;100.00;100716.53;20869179;28;20053;-75
2023/01/05 02:29:15;;;;;;;1.38;0.50;;;;;;;9.89;100.00;100733.06;20868503;28;20049;-75
2023/01/05 02:39:16;;;;;;;1.45;0.40;;;;;;;9.96;100.00;100729.53;20867065;28;20061;-74
2023/01/05 02:49:17;;;;;;;1.75;0.90;;;;;;;9.93;100.00;100721.72;20865805;28;20119;-74
2023/01/05 02:59:19;;;;;;;4.90;0.50;;;;;;;10.02;100.00;100702.47;20866458;28;20053;-76
2023/01/05 03:09:24;;;;;;;0.60;0.35;;;;;;;10.10;100.00;100716.34;20864634;28;20493;-75
2023/01/05 03:19:35;;;;;;;0.90;0.30;;;;;;;10.12;100.00;100716.34;20863742;28;20049;-78
2023/01/05 03:39:56;;;;;;;2.00;0.50;;;;;;;10.24;100.00;100714.50;20860236;28;20045;-75
2023/01/05 03:49:57;;;;;;;1.25;0.40;;;;;;;10.34;100.00;100715.28;20861884;28;20286;-75
2023/01/05 03:59:58;;;;;;;2.45;0.50;;;;;;;10.42;100.00;100726.53;20862043;28;20106;-75
2023/01/05 04:10:00;;;;;;;0.43;0.32;;;;;;;10.52;100.00;100715.09;20860043;28;20477;-75
2023/01/05 04:20:01;;;;;;;1.00;0.20;;;;;;;10.66;100.00;100725.41;20861824;28;20169;-75
2023/01/05 04:30:02;;;;;;;1.33;0.40;;;;;;;10.57;100.00;100751.69;20887083;23;20048;-74
2023/01/05 04:40:04;;;;;;;0.70;0.32;;;;;;;10.64;100.00;100778.72;20858821;28;20413;-71
2023/01/05 04:50:05;;;;;;;2.00;0.20;;;;;;;10.62;100.00;100768.22;20858949;28;20041;-72
2023/01/05 05:00:06;;;;;;;2.00;0.60;;;;;;;10.49;100.00;100788.44;20858767;28;20069;-72
2023/01/05 05:10:07;;;;;;;2.22;0.43;;;;;;;10.53;100.00;100797.97;20862395;28;20481;-72
2023/01/05 05:20:09;;;;;;;7.82;0.65;;;;;;;10.34;100.00;100809.50;20876974;28;20044;-72
2023/01/05 05:30:10;;;;;;;1.85;0.60;;;;;;;10.21;100.00;100821.78;20874418;28;20528;-71
2023/01/05 05:40:11;;;;;;;2.85;0.85;;;;;;;10.06;100.00;100845.47;20952641;28;20048;-72
2023/01/05 05:50:13;;;;;;;6.57;2.03;;;;;;;10.12;100.00;100855.00;20954396;28;20123;-71
2023/01/05 06:00:14;;;;;;;4.82;1.20;;;;;;;10.06;100.00;100865.50;20957741;28;20113;-72
2023/01/05 06:10:15;;;;;;;5.53;1.10;;;;;;;10.07;100.00;100898.66;20950358;28;20049;-70
2023/01/05 06:20:17;;;;;;;9.45;1.20;;;;;;;10.08;100.00;100892.53;20952625;28;20559;-71
2023/01/05 06:30:18;;;;;;;7.85;2.10;;;;;;;10.05;100.00;100892.53;20952322;28;20389;-72
2023/01/05 06:40:19;;;;;;;6.55;1.35;;;;;;;10.00;100.00;100913.50;20952219;28;20452;-72
2023/01/05 06:50:20;;;;;;;11.10;1.75;;;;;;;10.00;100.00;100909.13;20951400;28;20461;-71
2023/01/05 07:00:22;;;;;;;8.00;1.73;;;;;;;9.98;100.00;100908.28;20950241;28;25433;-72
2023/01/05 07:10:23;;;;;;;10.85;1.60;;;;;;;10.13;100.00;100930.00;20946861;28;20040;-72
2023/01/05 07:20:24;;;;;;;12.60;2.30;;;;;;;10.20;100.00;100931.69;20948928;28;20053;-71
2023/01/05 07:30:26;;;;;;;11.48;2.30;;;;;;;10.37;100.00;100924.66;20945299;28;20040;-71
2023/01/05 07:40:27;;;;;;;11.88;2.20;;;;;;;10.65;100.00;100941.06;20942583;28;20053;-71
2023/01/05 07:50:28;;;;;;;15.95;2.42;;;;;;;10.71;100.00;100940.13;20945125;28;20053;-71
2023/01/05 08:00:30;;;;;;;10.52;1.90;;;;;;;10.85;100.00;100950.50;20944865;28;20045;-72
2023/01/05 08:10:31;;;;;;;11.00;1.60;;;;;;;10.91;100.00;100953.06;20943618;28;20474;-71
2023/01/05 08:20:32;;;;;;;13.32;2.15;;;;;;;10.83;100.00;100975.81;20944167;28;20048;-72
2023/01/05 08:30:33;;;;;;;11.15;2.10;;;;;;;10.82;100.00;100985.44;20942097;28;20040;-71
2023/01/05 08:40:35;;;;;;;15.00;2.20;;;;;;;10.87;100.00;100999.38;20941501;28;20057;-72
2023/01/05 08:50:37;;;;;;;16.65;2.17;;;;;;;10.92;100.00;101012.44;20945727;28;20048;-71
2023/01/05 09:00:38;;;;;;;13.10;2.13;;;;;;;10.95;100.00;101033.38;20940910;28;20053;-72
2023/01/05 09:10:39;;;;;;;12.93;2.38;;;;;;;10.91;100.00;101042.13;20938364;28;20083;-72
2023/01/05 09:20:41;;;;;;;13.18;2.63;;;;;;;10.91;100.00;101045.63;20940922;28;20049;-72
2023/01/05 09:30:42;;;;;;;18.33;3.22;;;;;;;10.97;100.00;101058.72;20938810;28;20045;-72
2023/01/05 09:40:50;;;;;;;16.50;4.03;;;;;;;11.00;100.00;101053.44;20934615;28;20053;-71
2023/01/05 09:50:52;;;;;;;18.25;4.70;;;;;;;11.14;100.00;101070.81;20942571;28;20106;-72
2023/01/05 10:00:53;;;;;;;17.35;2.72;;;;;;;11.29;100.00;101071.56;20946226;28;20049;-71
2023/01/05 10:21:14;;;;;;;17.50;2.97;;;;;;;11.44;100.00;101060.06;20951571;28;20095;-73
2023/01/05 10:31:15;;;;;;;18.75;4.10;;;;;;;11.38;100.00;101041.78;20924213;23;20037;-81
2023/01/05 10:41:17;;;;;;;17.60;3.25;;;;;;;11.42;100.00;101040.00;20887372;28;20045;-81
2023/01/05 10:51:33;;;;;;;18.80;4.30;;;;;;;11.59;100.00;101052.94;20881636;28;20079;-80
2023/01/05 11:01:34;;;;;;;17.23;2.88;;;;;;;11.79;100.00;101061.50;20863384;28;20053;-80
2023/01/05 11:11:35;;;;;;;14.00;3.05;;;;;;;12.16;100.00;101056.75;20865372;28;20596;-80
2023/01/05 11:21:38;;;;;;;18.63;3.30;;;;;;;12.30;100.00;101048.69;20890011;28;20044;-80
2023/01/05 11:31:41;;;;;;;16.83;3.30;;;;;;;12.53;100.00;101054.53;20886554;28;1089240;-81
2023/01/05 11:41:43;;;;;;;18.60;3.78;;;;;;;12.39;100.00;101035.47;20885425;28;20045;-81
2023/01/05 11:51:44;;;;;;;15.57;2.70;;;;;;;11.97;100.00;101048.19;20928004;28;20184;-81
2023/01/05 12:01:45;;;;;;;15.25;2.70;;;;;;;11.90;100.00;101045.69;20925415;28;20049;-81
2023/01/05 12:12:07;;;;;;;15.02;3.38;;;;;;;11.92;100.00;101033.41;20874823;28;20162;-81
2023/01/05 12:32:54;;;;;;;19.05;3.10;;;;;;;12.30;100.00;101053.94;20866602;28;20046;-81
2023/01/05 12:43:16;;;;;;;14.43;3.40;;;;;;;12.25;100.00;101066.28;20857556;23;20076;-70
2023/01/05 12:53:17;;;;;;;17.48;3.40;;;;;;;12.33;100.00;101065.28;20952139;23;20084;-78
2023/01/05 13:03:18;;;;;;;16.10;2.97;;;;;;;12.36;100.00;101059.16;20859271;28;20111;-78
2023/01/05 13:13:19;;;;;;;18.33;3.28;;;;;;;12.42;100.00;101055.56;20856035;28;20461;-76
2023/01/05 13:23:21;;;;;;;15.52;2.83;;;;;;;12.52;100.00;101060.69;20859103;28;20061;-76
2023/01/05 13:33:22;;;;;;;22.02;2.95;;;;;;;12.46;100.00;101055.50;20865190;28;20049;-74
2023/01/05 13:43:23;;;;;;;19.60;3.63;;;;;;;12.23;100.00;101068.06;20872460;28;20080;-74
2023/01/05 13:53:25;;;;;;;17.58;4.85;;;;;;;12.13;100.00;101071.69;20871761;28;20049;-75
2023/01/05 14:03:26;;;;;;;19.17;5.15;;;;;;;12.01;100.00;101076.16;20869774;28;20045;-75
2023/01/05 14:13:27;;;;;;;21.88;3.80;;;;;;;11.89;100.00;101093.81;20869219;28;20045;-73
2023/01/05 14:23:29;;;;;;;18.50;3.65;;;;;;;11.91;100.00;101098.13;20868774;28;20485;-74
2023/01/05 14:33:30;;;;;;;21.48;3.83;;;;;;;11.78;100.00;101096.47;20870555;28;20106;-73
2023/01/05 14:43:31;;;;;;;15.25;3.38;;;;;;;11.70;100.00;101103.56;20869883;28;20053;-74
2023/01/05 14:53:33;;;;;;;15.90;3.53;;;;;;;11.76;100.00;101104.38;20865780;28;20053;-74
2023/01/05 15:03:34;;;;;;;16.30;2.67;;;;;;;11.60;100.00;101099.28;20864837;28;20064;-74
2023/01/05 15:13:36;;;;;;;19.50;3.15;;;;;;;11.53;100.00;101099.31;20864356;28;20472;-75
2023/01/05 15:23:38;;;;;;;19.48;5.30;;;;;;;11.46;100.00;101095.03;20863164;28;20048;-74
2023/01/05 15:33:39;;;;;;;15.55;3.22;;;;;;;11.41;100.00;101094.19;20860869;28;20088;-73
2023/01/05 15:43:41;;;;;;;15.38;4.35;;;;;;;11.27;100.00;101112.66;20862869;28;20053;-73
2023/01/05 15:53:43;;;;;;;24.52;4.75;;;;;;;11.24;100.00;101106.56;20860986;28;20388;-73
2023/01/05 16:03:44;;;;;;;14.75;4.28;;;;;;;11.20;100.00;101103.06;20860414;28;20045;-73
2023/01/05 16:13:45;;;;;;;21.67;3.45;;;;;;;11.25;100.00;101116.16;20858424;28;20053;-73
2023/01/05 16:23:47;;;;;;;16.45;3.55;;;;;;;11.22;100.00;101101.34;20860101;28;20048;-74
2023/01/05 16:33:48;;;;;;;17.42;3.47;;;;;;;11.15;100.00;101101.38;20857697;28;20049;-74
2023/01/05 16:43:49;;;;;;;27.65;6.95;;;;;;;11.11;100.00;101095.28;20857665;28;20494;-74
2023/01/05 16:53:50;;;;;;;19.13;3.75;;;;;;;11.17;100.00;101104.88;20855806;28;20057;-75
2023/01/05 17:03:52;;;;;;;18.25;4.53;;;;;;;11.11;100.00;101091.78;20858446;28;20037;-75
2023/01/05 17:13:53;;;;;;;16.25;3.58;;;;;;;11.05;100.00;101088.31;20853384;28;20053;-75
2023/01/05 17:23:54;;;;;;;17.83;3.70;;;;;;;11.14;100.00;101086.53;20852169;28;20045;-75
2023/01/05 17:33:56;;;;;;;14.55;2.95;;;;;;;11.13;100.00;101095.28;20845856;28;20057;-75
2023/01/05 17:43:57;;;;;;;16.38;3.53;;;;;;;10.95;100.00;101097.13;20849973;28;20421;-75
2023/01/05 17:53:58;;;;;;;16.15;3.00;;;;;;;10.90;100.00;101093.66;20845844;28;20064;-75
2023/01/05 18:04:00;;;;;;;15.40;3.10;;;;;;;10.93;100.00;101082.31;20845350;28;20053;-74
2023/01/05 18:14:01;;;;;;;15.43;4.30;;;;;;;10.86;100.00;101085.84;20846090;28;20048;-75
2023/01/05 18:24:02;;;;;;;14.98;3.00;;;;;;;10.87;100.00;101083.19;20862239;28;20053;-74
2023/01/05 18:34:03;;;;;;;14.00;3.15;;;;;;;10.80;100.00;101073.66;20858932;28;20099;-74
2023/01/05 18:44:05;;;;;;;15.85;2.85;;;;;;;10.61;100.00;101077.25;20863517;28;20070;-78
2023/01/05 18:54:07;;;;;;;11.82;4.35;;;;;;;10.51;100.00;101084.28;20858974;28;20064;-75
2023/01/05 19:04:08;;;;;;;15.65;3.50;;;;;;;10.46;100.00;101071.22;20856917;28;20068;-75
2023/01/05 19:14:09;;;;;;;12.70;3.13;;;;;;;10.43;100.00;101068.59;20857935;28;20049;-75
2023/01/05 19:24:10;;;;;;;10.18;3.00;;;;;;;10.33;100.00;101074.75;20858117;28;20057;-75
2023/01/05 19:34:13;;;;;;;8.73;3.60;;;;;;;10.37;100.00;101060.78;20854701;28;20504;-75
2023/01/05 19:44:14;;;;;;;10.73;2.85;;;;;;;10.34;100.00;101055.53;20856129;28;20053;-75
2023/01/05 19:54:16;;;;;;;11.30;3.20;;;;;;;10.38;100.00;101057.28;20853083;28;20072;-74
2023/01/05 20:04:17;;;;;;;11.18;3.60;;;;;;;10.39;100.00;101047.66;20852162;28;20069;-75
2023/01/05 20:14:19;;;;;;;12.77;4.75;;;;;;;10.44;100.00;101049.41;20850322;28;20053;-74
2023/01/05 20:24:21;;;;;;;12.60;3.58;;;;;;;10.42;100.00;101052.91;20835284;28;20122;-74
2023/01/05 20:34:22;;;;;;;12.45;4.32;;;;;;;10.40;100.00;101055.53;20850679;28;20397;-75
2023/01/05 20:44:23;;;;;;;14.20;5.40;;;;;;;10.50;100.00;101052.00;20849963;28;20057;-75
2023/01/05 20:54:25;;;;;;;17.17;7.25;;;;;;;10.50;100.00;101040.66;20848380;28;20049;-75
2023/01/05 21:04:26;;;;;;;14.63;5.32;;;;;;;10.47;100.00;101038.91;20847469;28;20050;-74
2023/01/05 21:14:27;;;;;;;14.55;5.70;;;;;;;10.45;100.00;101048.53;20830833;28;20464;-76
2023/01/05 21:24:28;;;;;;;16.58;5.10;;;;;;;10.45;100.00;101039.81;20851587;28;20456;-77
2023/01/05 21:34:30;;;;;;;12.25;4.88;;;;;;;10.46;100.00;101034.56;20847559;28;20045;-78
2023/01/05 21:44:31;;;;;;;14.13;6.90;;;;;;;10.45;100.00;101030.19;20847843;28;20103;-77
2023/01/05 22:04:53;;;;;;;10.63;5.22;;;;;;;10.69;100.00;101023.97;20860658;28;20115;-76
2023/01/05 22:14:54;;;;;;;9.30;5.53;;;;;;;10.58;100.00;101017.03;20862723;28;20057;-77
2023/01/05 22:24:55;;;;;;;9.25;4.82;;;;;;;10.60;100.00;101015.28;20864996;28;20100;-78
2023/01/05 22:34:57;;;;;;;9.00;4.20;;;;;;;10.61;100.00;101022.25;20843741;28;20045;-77
2023/01/05 22:44:58;;;;;;;9.45;4.68;;;;;;;10.66;100.00;101007.38;20865030;28;20482;-77
2023/01/05 22:54:59;;;;;;;6.00;3.25;;;;;;;10.67;100.00;100998.66;20856687;28;20044;-78
2023/01/05 23:05:00;;;;;;;5.13;2.90;;;;;;;10.63;100.00;101010.00;20857151;28;20056;-78
2023/01/05 23:15:04;;;;;;;11.90;4.65;;;;;;;10.71;100.00;100993.38;20868747;28;20041;-78
2023/01/05 23:25:05;;;;;;;9.02;3.80;;;;;;;10.78;100.00;100984.59;20863613;28;20099;-76
2023/01/05 23:35:06;;;;;;;7.22;2.80;;;;;;;10.69;100.00;100965.47;20860447;28;20053;-80
2023/01/05 23:45:08;;;;;;;7.75;2.80;;;;;;;10.68;100.00;100958.47;20859822;28;20102;-77
2023/01/05 23:55:09;;;;;;;7.85;2.78;;;;;;;10.68;100.00;100955.84;20859940;28;20119;-76
